createdAt,value
2022-11-29T00:00:55.337Z,8.74
2022-11-29T00:01:55.433Z,8.71
2022-11-29T00:02:55.506Z,8.67
2022-11-29T00:03:55.324Z,8.74
2022-11-29T00:04:55.323Z,8.71
2022-11-29T00:05:55.313Z,8.73
2022-11-29T00:06:55.311Z,8.73
2022-11-29T00:07:55.325Z,8.73
2022-11-29T00:08:55.303Z,8.70
2022-11-29T00:09:55.298Z,8.71
2022-11-29T00:10:55.318Z,8.76
2022-11-29T00:11:55.288Z,8.74
2022-11-29T00:12:55.286Z,8.73
2022-11-29T00:13:55.280Z,8.70
2022-11-29T00:14:55.279Z,8.74
2022-11-29T00:15:55.273Z,8.73
2022-11-29T00:16:55.394Z,8.66
2022-11-29T00:17:55.271Z,8.71
2022-11-29T00:18:55.263Z,8.71
2022-11-29T00:19:55.259Z,8.67
2022-11-29T00:20:55.253Z,8.69
2022-11-29T00:21:55.249Z,8.66
2022-11-29T00:22:55.246Z,8.73
2022-11-29T00:23:55.240Z,8.73
2022-11-29T00:24:55.439Z,8.71
2022-11-29T00:25:55.231Z,8.73
2022-11-29T00:26:55.251Z,8.73
2022-11-29T00:27:55.224Z,8.76
2022-11-29T00:28:55.221Z,8.69
2022-11-29T00:29:55.215Z,8.70
2022-11-29T00:30:55.283Z,8.76
2022-11-29T00:31:55.207Z,8.70
2022-11-29T00:32:55.205Z,8.69
2022-11-29T00:33:55.198Z,8.71
2022-11-29T00:34:59.245Z,8.69
2022-11-29T00:35:55.190Z,8.66
2022-11-29T00:36:55.189Z,8.64
2022-11-29T00:37:55.181Z,8.69
2022-11-29T00:38:55.186Z,8.69
2022-11-29T00:39:55.176Z,8.64
2022-11-29T00:40:55.177Z,8.67
2022-11-29T00:41:55.169Z,8.69
2022-11-29T00:42:55.186Z,8.66
2022-11-29T00:43:55.157Z,8.67
2022-11-29T00:44:55.154Z,8.58
2022-11-29T00:45:55.199Z,8.63
2022-11-29T00:46:55.146Z,8.58
2022-11-29T00:47:55.141Z,8.58
2022-11-29T00:48:55.144Z,8.67
2022-11-29T00:49:55.137Z,8.63
2022-11-29T00:50:55.132Z,8.63
2022-11-29T00:51:55.124Z,8.61
2022-11-29T00:52:55.120Z,8.60
2022-11-29T00:53:55.124Z,8.67
2022-11-29T00:54:55.114Z,8.69
2022-11-29T00:55:55.107Z,8.71
2022-11-29T00:56:55.104Z,8.67
2022-11-29T00:57:55.097Z,8.66
2022-11-29T00:58:55.122Z,8.67
2022-11-29T00:59:55.094Z,8.70
2022-11-29T01:00:55.142Z,8.66
2022-11-29T01:01:55.084Z,8.71
2022-11-29T01:02:55.083Z,8.71
2022-11-29T01:03:55.076Z,8.69
2022-11-29T01:04:55.072Z,8.71
2022-11-29T01:05:55.069Z,8.74
2022-11-29T01:06:55.070Z,8.70
2022-11-29T01:07:55.136Z,8.70
2022-11-29T01:08:55.056Z,8.74
2022-11-29T01:09:55.051Z,8.71
2022-11-29T01:10:55.047Z,8.73
2022-11-29T01:11:55.049Z,8.78
2022-11-29T01:12:55.040Z,8.71
2022-11-29T01:13:55.051Z,8.73
2022-11-29T01:14:55.061Z,8.76
2022-11-29T01:15:55.034Z,8.73
2022-11-29T01:16:55.083Z,8.73
2022-11-29T01:17:55.015Z,8.71
2022-11-29T01:18:55.020Z,8.76
2022-11-29T01:19:55.007Z,8.69
2022-11-29T01:20:55.005Z,8.70
2022-11-29T01:21:55.001Z,8.82
2022-11-29T01:22:54.998Z,8.78
2022-11-29T01:23:54.992Z,8.82
2022-11-29T01:24:54.992Z,8.87
2022-11-29T01:25:54.983Z,8.82
2022-11-29T01:26:54.989Z,8.79
2022-11-29T01:27:54.988Z,8.79
2022-11-29T01:28:54.973Z,8.79
2022-11-29T01:29:54.969Z,8.71
2022-11-29T01:30:55.059Z,8.78
2022-11-29T01:31:54.959Z,8.84
2022-11-29T01:32:54.957Z,8.82
2022-11-29T01:33:54.956Z,8.82
2022-11-29T01:34:54.948Z,8.88
2022-11-29T01:35:54.942Z,8.89
2022-11-29T01:36:54.939Z,8.88
2022-11-29T01:37:54.936Z,8.91
2022-11-29T01:38:54.931Z,8.84
2022-11-29T01:39:54.926Z,8.79
2022-11-29T01:40:54.923Z,8.85
2022-11-29T01:41:54.920Z,8.85
2022-11-29T01:42:54.923Z,8.89
2022-11-29T01:43:54.911Z,8.85
2022-11-29T01:44:54.907Z,8.81
2022-11-29T01:45:54.918Z,8.95
2022-11-29T01:46:54.919Z,8.84
2022-11-29T01:47:54.893Z,8.81
2022-11-29T01:48:54.889Z,8.88
2022-11-29T01:49:54.884Z,8.92
2022-11-29T01:50:54.884Z,8.89
2022-11-29T01:51:54.877Z,8.89
2022-11-29T01:52:54.875Z,8.84
2022-11-29T01:53:54.875Z,8.87
2022-11-29T01:54:54.867Z,8.81
2022-11-29T01:55:54.975Z,8.89
2022-11-29T01:56:54.860Z,8.84
2022-11-29T01:57:54.852Z,8.87
2022-11-29T01:58:54.852Z,8.88
2022-11-29T01:59:54.843Z,8.92
2022-11-29T02:00:54.966Z,8.88
2022-11-29T02:01:54.841Z,8.79
2022-11-29T02:02:54.922Z,8.82
2022-11-29T02:03:54.831Z,8.78
2022-11-29T02:04:54.828Z,8.88
2022-11-29T02:05:54.820Z,8.76
2022-11-29T02:06:54.818Z,8.79
2022-11-29T02:07:54.886Z,8.81
2022-11-29T02:08:54.807Z,8.71
2022-11-29T02:09:54.802Z,8.82
2022-11-29T02:10:54.800Z,8.78
2022-11-29T02:11:54.796Z,8.79
2022-11-29T02:12:54.790Z,8.74
2022-11-29T02:13:54.787Z,8.82
2022-11-29T02:14:54.785Z,8.82
2022-11-29T02:15:54.831Z,8.76
2022-11-29T02:16:56.730Z,8.79
2022-11-29T02:17:54.768Z,8.82
2022-11-29T02:18:54.791Z,8.78
2022-11-29T02:19:54.764Z,8.81
2022-11-29T02:20:54.758Z,8.76
2022-11-29T02:21:54.757Z,8.84
2022-11-29T02:22:54.751Z,8.82
2022-11-29T02:23:54.743Z,8.82
2022-11-29T02:24:54.741Z,8.82
2022-11-29T02:25:54.735Z,8.85
2022-11-29T02:26:54.739Z,8.78
2022-11-29T02:27:54.729Z,8.88
2022-11-29T02:28:54.728Z,8.82
2022-11-29T02:29:54.718Z,8.79
2022-11-29T02:30:54.772Z,8.76
2022-11-29T02:31:54.712Z,8.97
2022-11-29T02:32:54.710Z,8.82
2022-11-29T02:33:54.706Z,8.81
2022-11-29T02:34:54.722Z,8.88
2022-11-29T02:35:54.697Z,8.95
2022-11-29T02:36:54.692Z,8.92
2022-11-29T02:37:54.694Z,8.95
2022-11-29T02:38:54.686Z,8.88
2022-11-29T02:39:54.679Z,8.92
2022-11-29T02:40:54.676Z,8.97
2022-11-29T02:41:54.672Z,8.88
2022-11-29T02:42:57.070Z,8.88
2022-11-29T02:43:54.665Z,8.87
2022-11-29T02:44:54.663Z,8.95
2022-11-29T02:45:54.762Z,8.97
2022-11-29T02:46:54.652Z,8.99
2022-11-29T02:47:54.646Z,9.04
2022-11-29T02:48:54.642Z,9.06
2022-11-29T02:49:54.637Z,9.04
2022-11-29T02:50:54.661Z,9.06
2022-11-29T02:51:54.629Z,9.06
2022-11-29T02:52:54.626Z,9.13
2022-11-29T02:53:54.620Z,9.14
2022-11-29T02:54:54.619Z,9.14
2022-11-29T02:55:54.614Z,9.11
2022-11-29T02:56:54.612Z,9.16
2022-11-29T02:57:54.607Z,9.18
2022-11-29T02:58:54.604Z,9.10
2022-11-29T02:59:54.599Z,9.06
2022-11-29T03:00:54.593Z,9.08
2022-11-29T03:01:54.626Z,9.14
2022-11-29T03:02:54.606Z,9.14
2022-11-29T03:03:54.593Z,9.11
2022-11-29T03:04:54.578Z,9.08
2022-11-29T03:05:54.576Z,9.06
2022-11-29T03:06:54.593Z,9.11
2022-11-29T03:07:54.644Z,9.08
2022-11-29T03:08:54.561Z,9.02
2022-11-29T03:09:54.557Z,8.97
2022-11-29T03:10:54.552Z,8.99
2022-11-29T03:11:54.551Z,8.99
2022-11-29T03:12:54.544Z,9.03
2022-11-29T03:13:54.547Z,8.97
2022-11-29T03:14:54.537Z,9.02
2022-11-29T03:15:54.599Z,9.03
2022-11-29T03:16:54.531Z,8.92
2022-11-29T03:17:54.525Z,8.91
2022-11-29T03:18:54.522Z,8.97
2022-11-29T03:19:54.518Z,8.89
2022-11-29T03:20:54.515Z,8.94
2022-11-29T03:21:54.509Z,9.00
2022-11-29T03:22:54.521Z,8.97
2022-11-29T03:23:54.503Z,8.99
2022-11-29T03:24:54.493Z,9.00
2022-11-29T03:25:54.500Z,9.02
2022-11-29T03:26:54.486Z,9.00
2022-11-29T03:27:54.485Z,9.02
2022-11-29T03:28:54.481Z,9.06
2022-11-29T03:29:54.825Z,9.11
2022-11-29T03:30:54.501Z,9.10
2022-11-29T03:31:54.464Z,9.06
2022-11-29T03:32:54.460Z,9.08
2022-11-29T03:33:54.458Z,9.08
2022-11-29T03:34:57.357Z,9.02
2022-11-29T03:35:54.453Z,9.08
2022-11-29T03:36:54.442Z,9.06
2022-11-29T03:37:54.439Z,9.08
2022-11-29T03:38:54.452Z,9.10
2022-11-29T03:39:54.431Z,9.11
2022-11-29T03:40:54.426Z,9.16
2022-11-29T03:41:54.421Z,9.18
2022-11-29T03:42:54.416Z,9.08
2022-11-29T03:43:54.415Z,9.11
2022-11-29T03:44:54.409Z,9.14
2022-11-29T03:45:54.456Z,9.06
2022-11-29T03:46:54.401Z,9.08
2022-11-29T03:47:54.397Z,9.08
2022-11-29T03:48:54.391Z,9.11
2022-11-29T03:49:54.392Z,9.13
2022-11-29T03:50:54.384Z,9.16
2022-11-29T03:51:54.384Z,9.10
2022-11-29T03:52:54.376Z,9.16
2022-11-29T03:53:54.383Z,9.11
2022-11-29T03:54:54.388Z,9.13
2022-11-29T03:55:54.364Z,9.18
2022-11-29T03:56:54.358Z,9.13
2022-11-29T03:57:54.359Z,9.13
2022-11-29T03:58:54.350Z,9.11
2022-11-29T03:59:54.361Z,9.11
2022-11-29T04:00:54.343Z,9.21
2022-11-29T04:01:54.391Z,9.14
2022-11-29T04:02:54.371Z,9.18
2022-11-29T04:03:54.333Z,9.14
2022-11-29T04:04:54.328Z,9.11
2022-11-29T04:05:54.323Z,9.19
2022-11-29T04:06:54.315Z,9.10
2022-11-29T04:07:54.401Z,9.04
2022-11-29T04:08:54.309Z,9.06
2022-11-29T04:09:54.309Z,9.08
2022-11-29T04:10:54.321Z,9.06
2022-11-29T04:11:54.298Z,9.08
2022-11-29T04:12:54.290Z,9.04
2022-11-29T04:13:54.286Z,9.06
2022-11-29T04:14:54.281Z,9.03
2022-11-29T04:15:54.295Z,9.04
2022-11-29T04:16:54.273Z,9.03
2022-11-29T04:17:54.272Z,9.02
2022-11-29T04:18:54.265Z,9.03
2022-11-29T04:19:54.263Z,9.02
2022-11-29T04:20:54.255Z,9.03
2022-11-29T04:21:54.252Z,9.03
2022-11-29T04:22:54.251Z,8.99
2022-11-29T04:23:54.246Z,9.03
2022-11-29T04:24:54.238Z,9.03
2022-11-29T04:25:54.238Z,9.00
2022-11-29T04:26:54.251Z,8.97
2022-11-29T04:27:54.228Z,8.99
2022-11-29T04:28:54.223Z,8.99
2022-11-29T04:29:54.471Z,9.02
2022-11-29T04:30:54.327Z,9.06
2022-11-29T04:31:54.219Z,9.08
2022-11-29T04:32:54.205Z,9.08
2022-11-29T04:33:54.205Z,9.04
2022-11-29T04:34:54.198Z,9.08
2022-11-29T04:35:54.195Z,9.03
2022-11-29T04:36:54.187Z,9.02
2022-11-29T04:37:54.189Z,9.03
2022-11-29T04:38:54.180Z,9.02
2022-11-29T04:39:54.178Z,8.97
2022-11-29T04:40:54.180Z,9.00
2022-11-29T04:41:54.167Z,9.08
2022-11-29T04:42:54.186Z,8.97
2022-11-29T04:43:54.165Z,8.97
2022-11-29T04:44:54.160Z,9.00
2022-11-29T04:45:54.154Z,8.99
2022-11-29T04:46:54.146Z,9.00
2022-11-29T04:47:54.145Z,8.97
2022-11-29T04:48:54.138Z,8.88
2022-11-29T04:49:54.135Z,8.91
2022-11-29T04:50:54.131Z,8.97
2022-11-29T04:51:54.127Z,8.94
2022-11-29T04:52:54.121Z,8.92
2022-11-29T04:53:54.120Z,8.95
2022-11-29T04:54:54.110Z,8.89
2022-11-29T04:55:54.111Z,8.92
2022-11-29T04:56:54.105Z,8.91
2022-11-29T04:57:54.099Z,8.91
2022-11-29T04:58:54.118Z,8.97
2022-11-29T04:59:54.092Z,8.95
2022-11-29T05:00:54.084Z,8.95
2022-11-29T05:01:54.130Z,8.89
2022-11-29T05:02:54.130Z,8.95
2022-11-29T05:03:57.208Z,8.94
2022-11-29T05:04:54.068Z,8.94
2022-11-29T05:05:54.070Z,8.92
2022-11-29T05:06:54.061Z,8.85
2022-11-29T05:07:54.147Z,8.91
2022-11-29T05:08:54.053Z,8.89
2022-11-29T05:09:54.047Z,8.94
2022-11-29T05:10:54.043Z,8.91
2022-11-29T05:11:54.038Z,8.91
2022-11-29T05:12:54.033Z,8.88
2022-11-29T05:13:54.029Z,9.00
2022-11-29T05:14:54.046Z,8.92
2022-11-29T05:15:54.091Z,8.91
2022-11-29T05:16:54.015Z,8.91
2022-11-29T05:17:54.015Z,8.92
2022-11-29T05:18:54.007Z,8.89
2022-11-29T05:19:54.007Z,9.00
2022-11-29T05:20:53.998Z,8.97
2022-11-29T05:21:54.006Z,8.91
2022-11-29T05:22:53.986Z,8.94
2022-11-29T05:23:53.986Z,8.92
2022-11-29T05:24:53.979Z,8.91
2022-11-29T05:25:53.976Z,8.92
2022-11-29T05:26:53.969Z,8.92
2022-11-29T05:27:53.971Z,8.95
2022-11-29T05:28:53.961Z,8.85
2022-11-29T05:29:53.957Z,8.94
2022-11-29T05:30:54.033Z,8.82
2022-11-29T05:31:53.951Z,8.91
2022-11-29T05:32:53.945Z,8.95
2022-11-29T05:33:53.942Z,8.87
2022-11-29T05:34:54.337Z,8.88
2022-11-29T05:35:53.937Z,8.85
2022-11-29T05:36:53.926Z,8.85
2022-11-29T05:37:53.924Z,8.84
2022-11-29T05:38:53.920Z,8.85
2022-11-29T05:39:53.918Z,8.79
2022-11-29T05:40:54.003Z,8.88
2022-11-29T05:41:53.914Z,8.76
2022-11-29T05:42:53.902Z,8.85
2022-11-29T05:43:53.902Z,8.88
2022-11-29T05:44:53.893Z,8.88
2022-11-29T05:45:53.891Z,8.85
2022-11-29T05:46:53.905Z,8.82
2022-11-29T05:47:53.883Z,8.84
2022-11-29T05:48:53.885Z,8.78
2022-11-29T05:49:53.872Z,8.81
2022-11-29T05:50:53.867Z,8.82
2022-11-29T05:51:53.863Z,8.76
2022-11-29T05:52:53.856Z,8.78
2022-11-29T05:53:53.854Z,8.76
2022-11-29T05:54:53.849Z,8.87
2022-11-29T05:55:53.844Z,8.79
2022-11-29T05:56:53.839Z,8.81
2022-11-29T05:57:53.834Z,8.71
2022-11-29T05:58:53.836Z,8.84
2022-11-29T05:59:53.832Z,8.82
2022-11-29T06:00:53.831Z,8.82
2022-11-29T06:01:53.891Z,8.82
2022-11-29T06:02:53.847Z,8.81
2022-11-29T06:03:53.812Z,8.79
2022-11-29T06:04:53.805Z,8.74
2022-11-29T06:05:53.800Z,8.85
2022-11-29T06:06:53.801Z,8.76
2022-11-29T06:07:53.821Z,8.81
2022-11-29T06:08:53.786Z,8.76
2022-11-29T06:09:53.783Z,8.88
2022-11-29T06:10:53.777Z,8.78
2022-11-29T06:11:53.779Z,8.78
2022-11-29T06:12:53.770Z,8.84
2022-11-29T06:13:53.765Z,8.71
2022-11-29T06:14:53.764Z,8.79
2022-11-29T06:15:53.823Z,8.76
2022-11-29T06:16:53.753Z,8.79
2022-11-29T06:17:53.750Z,8.89
2022-11-29T06:18:53.766Z,8.87
2022-11-29T06:19:53.747Z,8.82
2022-11-29T06:20:53.735Z,8.82
2022-11-29T06:21:53.733Z,8.91
2022-11-29T06:22:53.731Z,8.85
2022-11-29T06:23:53.724Z,8.88
2022-11-29T06:24:53.717Z,8.95
2022-11-29T06:25:53.723Z,8.82
2022-11-29T06:26:53.738Z,8.85
2022-11-29T06:27:53.707Z,8.79
2022-11-29T06:28:53.703Z,8.88
2022-11-29T06:29:53.701Z,8.91
2022-11-29T06:30:53.693Z,8.94
2022-11-29T06:31:53.693Z,8.87
2022-11-29T06:32:53.685Z,8.89
2022-11-29T06:33:53.683Z,8.88
2022-11-29T06:34:53.692Z,8.84
2022-11-29T06:35:53.671Z,8.85
2022-11-29T06:36:53.663Z,8.91
2022-11-29T06:37:53.663Z,8.79
2022-11-29T06:38:53.669Z,8.82
2022-11-29T06:39:53.855Z,8.76
2022-11-29T06:40:58.613Z,8.87
2022-11-29T06:41:53.647Z,8.76
2022-11-29T06:42:53.639Z,8.88
2022-11-29T06:43:53.634Z,8.82
2022-11-29T06:44:53.631Z,8.81
2022-11-29T06:45:53.634Z,8.76
2022-11-29T06:46:53.688Z,8.73
2022-11-29T06:47:53.619Z,8.71
2022-11-29T06:48:56.593Z,8.70
2022-11-29T06:49:53.609Z,8.76
2022-11-29T06:50:53.624Z,8.64
2022-11-29T06:51:53.602Z,8.69
2022-11-29T06:52:53.597Z,8.70
2022-11-29T06:53:53.593Z,8.66
2022-11-29T06:54:53.589Z,8.73
2022-11-29T06:55:53.587Z,8.71
2022-11-29T06:56:53.581Z,8.66
2022-11-29T06:57:53.575Z,8.64
2022-11-29T06:58:53.570Z,8.61
2022-11-29T06:59:53.575Z,8.60
2022-11-29T07:00:53.576Z,8.64
2022-11-29T07:01:53.624Z,8.71
2022-11-29T07:02:53.595Z,8.66
2022-11-29T07:03:53.552Z,8.71
2022-11-29T07:04:53.544Z,8.67
2022-11-29T07:05:53.539Z,8.67
2022-11-29T07:06:53.554Z,8.70
2022-11-29T07:07:53.582Z,8.66
2022-11-29T07:08:53.526Z,8.66
2022-11-29T07:09:53.524Z,8.70
2022-11-29T07:10:53.516Z,8.58
2022-11-29T07:11:53.512Z,8.58
2022-11-29T07:12:53.513Z,8.53
2022-11-29T07:13:53.505Z,8.61
2022-11-29T07:14:53.497Z,8.66
2022-11-29T07:15:53.535Z,8.60
2022-11-29T07:16:57.346Z,8.66
2022-11-29T07:17:53.485Z,8.60
2022-11-29T07:18:53.480Z,8.66
2022-11-29T07:19:53.476Z,8.70
2022-11-29T07:20:53.471Z,8.70
2022-11-29T07:21:53.466Z,8.71
2022-11-29T07:22:53.493Z,8.76
2022-11-29T07:23:53.466Z,8.69
2022-11-29T07:24:53.454Z,8.69
2022-11-29T07:25:53.448Z,8.73
2022-11-29T07:26:58.126Z,8.74
2022-11-29T07:27:53.440Z,8.67
2022-11-29T07:28:53.438Z,8.70
2022-11-29T07:29:53.433Z,8.74
2022-11-29T07:30:53.427Z,8.71
2022-11-29T07:31:53.457Z,8.78
2022-11-29T07:32:58.785Z,8.73
2022-11-29T07:33:53.414Z,8.73
2022-11-29T07:34:53.410Z,8.70
2022-11-29T07:35:53.407Z,8.70
2022-11-29T07:36:53.413Z,8.74
2022-11-29T07:37:53.403Z,8.69
2022-11-29T07:38:53.417Z,8.73
2022-11-29T07:39:53.737Z,8.69
2022-11-29T07:40:53.385Z,8.70
2022-11-29T07:41:53.386Z,8.69
2022-11-29T07:42:53.381Z,8.71
2022-11-29T07:43:53.371Z,8.79
2022-11-29T07:44:53.367Z,8.73
2022-11-29T07:45:53.362Z,8.78
2022-11-29T07:46:53.431Z,8.76
2022-11-29T07:47:53.354Z,8.71
2022-11-29T07:48:53.352Z,8.79
2022-11-29T07:49:53.344Z,8.71
2022-11-29T07:50:53.343Z,8.82
2022-11-29T07:51:53.338Z,8.78
2022-11-29T07:52:53.332Z,8.81
2022-11-29T07:53:53.325Z,8.74
2022-11-29T07:54:53.347Z,8.81
2022-11-29T07:55:53.319Z,8.71
2022-11-29T07:56:53.315Z,8.82
2022-11-29T07:57:53.310Z,8.70
2022-11-29T07:58:53.356Z,8.84
2022-11-29T07:59:53.299Z,8.70
2022-11-29T08:00:53.379Z,8.74
2022-11-29T08:01:53.322Z,8.76
2022-11-29T08:02:53.289Z,8.74
2022-11-29T08:03:53.282Z,8.70
2022-11-29T08:04:53.279Z,8.69
2022-11-29T08:05:53.273Z,8.69
2022-11-29T08:06:53.284Z,8.67
2022-11-29T08:07:53.319Z,8.69
2022-11-29T08:08:53.262Z,8.58
2022-11-29T08:09:53.256Z,8.71
2022-11-29T08:10:53.288Z,8.64
2022-11-29T08:11:53.254Z,8.64
2022-11-29T08:12:53.246Z,8.61
2022-11-29T08:13:53.239Z,8.64
2022-11-29T08:14:53.243Z,8.63
2022-11-29T08:15:53.233Z,8.61
2022-11-29T08:16:53.233Z,8.61
2022-11-29T08:17:53.223Z,8.61
2022-11-29T08:18:53.217Z,8.66
2022-11-29T08:19:53.215Z,8.69
2022-11-29T08:20:53.210Z,8.70
2022-11-29T08:21:53.204Z,8.67
2022-11-29T08:22:53.206Z,8.73
2022-11-29T08:23:53.195Z,8.70
2022-11-29T08:24:53.193Z,8.67
2022-11-29T08:25:53.188Z,8.67
2022-11-29T08:26:53.276Z,8.76
2022-11-29T08:27:53.183Z,8.67
2022-11-29T08:28:53.176Z,8.76
2022-11-29T08:29:53.170Z,8.70
2022-11-29T08:30:53.165Z,8.71
2022-11-29T08:31:53.339Z,8.81
2022-11-29T08:32:53.156Z,8.81
2022-11-29T08:33:53.150Z,8.78
2022-11-29T08:34:53.154Z,8.85
2022-11-29T08:35:53.143Z,8.82
2022-11-29T08:36:53.142Z,8.81
2022-11-29T08:37:53.136Z,8.79
2022-11-29T08:39:01.244Z,8.82
2022-11-29T08:39:53.577Z,8.71
2022-11-29T08:40:53.121Z,8.88
2022-11-29T08:41:53.116Z,8.82
2022-11-29T08:42:53.136Z,8.85
2022-11-29T08:43:53.108Z,8.81
2022-11-29T08:44:53.103Z,8.91
2022-11-29T08:45:53.185Z,8.94
2022-11-29T08:46:53.098Z,8.79
2022-11-29T08:47:53.090Z,8.76
2022-11-29T08:48:53.087Z,8.84
2022-11-29T08:49:53.086Z,8.81
2022-11-29T08:50:53.086Z,8.85
2022-11-29T08:51:53.080Z,8.84
2022-11-29T08:52:53.069Z,8.85
2022-11-29T08:53:53.071Z,8.73
2022-11-29T08:54:53.061Z,8.81
2022-11-29T08:55:53.055Z,8.82
2022-11-29T08:57:37.341Z,8.79
2022-11-29T08:57:53.047Z,8.78
2022-11-29T08:58:53.069Z,8.84
2022-11-29T08:59:53.053Z,8.78
2022-11-29T09:00:53.132Z,8.82
2022-11-29T09:01:53.069Z,8.79
2022-11-29T09:02:53.035Z,8.74
2022-11-29T09:03:53.023Z,8.74
2022-11-29T09:04:53.016Z,8.85
2022-11-29T09:05:53.011Z,8.71
2022-11-29T09:06:53.011Z,8.84
2022-11-29T09:07:53.043Z,8.89
2022-11-29T09:08:53.012Z,8.87
2022-11-29T09:09:52.997Z,8.91
2022-11-29T09:10:52.997Z,8.81
2022-11-29T09:11:52.993Z,8.79
2022-11-29T09:12:52.984Z,8.82
2022-11-29T09:13:52.981Z,8.70
2022-11-29T09:14:53.007Z,8.82
2022-11-29T09:15:52.980Z,8.74
2022-11-29T09:16:53.023Z,8.82
2022-11-29T09:17:52.964Z,8.81
2022-11-29T09:18:52.963Z,8.79
2022-11-29T09:19:52.954Z,8.78
2022-11-29T09:20:52.950Z,8.85
2022-11-29T09:21:52.945Z,8.85
2022-11-29T09:22:52.952Z,8.87
2022-11-29T09:23:52.944Z,8.85
2022-11-29T09:24:52.930Z,8.95
2022-11-29T09:25:52.925Z,8.87
2022-11-29T09:26:52.924Z,8.87
2022-11-29T09:27:52.918Z,8.82
2022-11-29T09:28:52.913Z,8.84
2022-11-29T09:29:52.910Z,8.89
2022-11-29T09:30:52.929Z,8.81
2022-11-29T09:31:52.928Z,8.89
2022-11-29T09:32:52.896Z,8.84
2022-11-29T09:33:52.892Z,8.78
2022-11-29T09:34:52.897Z,8.87
2022-11-29T09:35:52.888Z,8.78
2022-11-29T09:36:52.880Z,8.87
2022-11-29T09:37:52.874Z,8.85
2022-11-29T09:38:52.872Z,8.84
2022-11-29T09:39:52.868Z,8.71
2022-11-29T09:40:52.875Z,8.67
2022-11-29T09:41:52.865Z,8.70
2022-11-29T09:42:52.857Z,8.67
2022-11-29T09:43:52.849Z,8.67
2022-11-29T09:44:52.847Z,8.58
2022-11-29T09:45:52.895Z,8.61
2022-11-29T09:46:58.425Z,8.58
2022-11-29T09:47:52.835Z,8.64
2022-11-29T09:48:52.830Z,8.60
2022-11-29T09:49:52.825Z,8.51
2022-11-29T09:50:52.817Z,8.53
2022-11-29T09:51:52.817Z,8.56
2022-11-29T09:52:52.810Z,8.56
2022-11-29T09:53:52.807Z,8.55
2022-11-29T09:54:52.812Z,8.48
2022-11-29T09:55:52.798Z,8.58
2022-11-29T09:56:52.796Z,8.60
2022-11-29T09:57:52.789Z,8.58
2022-11-29T09:58:52.783Z,8.56
2022-11-29T09:59:52.782Z,8.56
2022-11-29T10:00:52.811Z,8.60
2022-11-29T10:01:52.775Z,8.55
2022-11-29T10:02:52.810Z,8.55
2022-11-29T10:03:52.764Z,8.51
2022-11-29T10:04:52.758Z,8.52
2022-11-29T10:05:52.752Z,8.48
2022-11-29T10:06:52.749Z,8.48
2022-11-29T10:07:52.797Z,8.49
2022-11-29T10:08:52.740Z,8.52
2022-11-29T10:09:52.733Z,8.55
2022-11-29T10:10:52.729Z,8.56
2022-11-29T10:11:52.725Z,8.51
2022-11-29T10:12:52.722Z,8.56
2022-11-29T10:13:52.714Z,8.60
2022-11-29T10:14:52.713Z,8.66
2022-11-29T10:15:52.707Z,8.63
2022-11-29T10:16:52.783Z,8.64
2022-11-29T10:17:52.696Z,8.64
2022-11-29T10:18:52.714Z,8.60
2022-11-29T10:19:52.688Z,8.70
2022-11-29T10:20:52.687Z,8.71
2022-11-29T10:21:52.678Z,8.63
2022-11-29T10:22:52.676Z,8.64
2022-11-29T10:23:52.670Z,8.61
2022-11-29T10:24:52.667Z,8.61
2022-11-29T10:25:52.662Z,8.60
2022-11-29T10:26:52.661Z,8.60
2022-11-29T10:27:52.651Z,8.55
2022-11-29T10:28:52.655Z,8.58
2022-11-29T10:29:52.643Z,8.63
2022-11-29T10:30:52.674Z,8.61
2022-11-29T10:31:52.633Z,8.66
2022-11-29T10:32:52.632Z,8.61
2022-11-29T10:33:52.627Z,8.66
2022-11-29T10:34:52.657Z,8.64
2022-11-29T10:35:52.632Z,8.63
2022-11-29T10:36:52.615Z,8.73
2022-11-29T10:38:28.667Z,8.69
2022-11-29T10:38:52.611Z,8.74
2022-11-29T10:39:52.599Z,8.71
2022-11-29T10:40:52.595Z,8.71
2022-11-29T10:41:52.590Z,8.70
2022-11-29T10:42:52.586Z,8.76
2022-11-29T10:43:52.579Z,8.73
2022-11-29T10:44:52.580Z,8.76
2022-11-29T10:45:52.585Z,8.70
2022-11-29T10:46:52.575Z,8.76
2022-11-29T10:47:52.566Z,8.85
2022-11-29T10:48:52.559Z,8.82
2022-11-29T10:49:52.560Z,8.82
2022-11-29T10:50:52.581Z,8.81
2022-11-29T10:51:52.550Z,8.81
2022-11-29T10:52:55.860Z,8.74
2022-11-29T10:53:52.535Z,8.84
2022-11-29T10:54:52.535Z,8.79
2022-11-29T10:55:52.527Z,8.79
2022-11-29T10:56:52.545Z,8.89
2022-11-29T10:57:52.517Z,8.87
2022-11-29T10:58:52.517Z,8.84
2022-11-29T10:59:52.517Z,8.94
2022-11-29T11:00:52.588Z,8.76
2022-11-29T11:01:52.556Z,8.92
2022-11-29T11:02:52.503Z,8.76
2022-11-29T11:03:53.177Z,8.79
2022-11-29T11:04:52.497Z,8.82
2022-11-29T11:05:52.539Z,8.84
2022-11-29T11:06:52.502Z,8.79
2022-11-29T11:07:52.525Z,8.95
2022-11-29T11:08:52.476Z,8.92
2022-11-29T11:09:52.467Z,8.89
2022-11-29T11:10:55.439Z,8.95
2022-11-29T11:11:52.459Z,9.04
2022-11-29T11:12:52.459Z,9.00
2022-11-29T11:13:52.451Z,9.18
2022-11-29T11:14:52.450Z,9.13
2022-11-29T11:15:52.441Z,9.08
2022-11-29T11:16:52.486Z,9.16
2022-11-29T11:17:52.433Z,9.06
2022-11-29T11:18:52.430Z,9.16
2022-11-29T11:19:52.430Z,9.14
2022-11-29T11:20:52.420Z,9.11
2022-11-29T11:21:52.414Z,9.18
2022-11-29T11:22:52.456Z,9.19
2022-11-29T11:23:52.406Z,9.16
2022-11-29T11:24:52.405Z,9.14
2022-11-29T11:25:52.398Z,9.16
2022-11-29T11:26:52.396Z,9.22
2022-11-29T11:27:52.392Z,9.22
2022-11-29T11:28:52.386Z,9.19
2022-11-29T11:29:52.581Z,9.16
2022-11-29T11:30:52.412Z,9.16
2022-11-29T11:31:52.375Z,9.10
2022-11-29T11:32:52.368Z,9.22
2022-11-29T11:33:52.365Z,9.22
2022-11-29T11:34:52.407Z,9.22
2022-11-29T11:35:52.355Z,9.16
2022-11-29T11:36:52.355Z,9.23
2022-11-29T11:37:52.351Z,9.22
2022-11-29T11:38:52.370Z,9.23
2022-11-29T11:39:52.391Z,9.21
2022-11-29T11:40:57.843Z,9.25
2022-11-29T11:41:52.337Z,9.22
2022-11-29T11:42:52.330Z,9.25
2022-11-29T11:43:52.324Z,9.19
2022-11-29T11:44:52.507Z,9.23
2022-11-29T11:45:52.344Z,9.23
2022-11-29T11:46:52.314Z,9.19
2022-11-29T11:47:52.307Z,9.19
2022-11-29T11:48:52.302Z,9.18
2022-11-29T11:49:52.298Z,9.21
2022-11-29T11:50:52.293Z,9.18
2022-11-29T11:51:52.290Z,9.22
2022-11-29T11:52:52.534Z,9.18
2022-11-29T11:53:52.283Z,9.18
2022-11-29T11:54:52.298Z,9.22
2022-11-29T11:55:52.280Z,9.16
2022-11-29T11:56:52.267Z,9.19
2022-11-29T11:57:52.263Z,9.11
2022-11-29T11:58:52.257Z,9.16
2022-11-29T11:59:52.255Z,9.11
2022-11-29T12:01:07.595Z,9.06
2022-11-29T12:01:52.252Z,9.06
2022-11-29T12:02:52.314Z,9.21
2022-11-29T12:03:52.240Z,9.14
2022-11-29T12:04:52.243Z,9.11
2022-11-29T12:05:52.251Z,9.06
2022-11-29T12:06:52.230Z,9.18
2022-11-29T12:08:08.806Z,9.06
2022-11-29T12:08:52.259Z,9.14
2022-11-29T12:09:52.215Z,9.16
2022-11-29T12:10:52.230Z,9.18
2022-11-29T12:11:52.206Z,9.10
2022-11-29T12:12:52.200Z,9.19
2022-11-29T12:13:52.196Z,9.14
2022-11-29T12:14:52.191Z,9.19
2022-11-29T12:15:52.217Z,9.19
2022-11-29T12:16:52.191Z,9.18
2022-11-29T12:17:52.180Z,9.08
2022-11-29T12:18:52.174Z,9.11
2022-11-29T12:19:52.174Z,9.11
2022-11-29T12:20:52.165Z,9.10
2022-11-29T12:21:52.177Z,9.06
2022-11-29T12:22:52.161Z,9.10
2022-11-29T12:23:52.157Z,9.08
2022-11-29T12:24:52.148Z,9.08
2022-11-29T12:25:52.212Z,9.06
2022-11-29T12:26:59.657Z,9.06
2022-11-29T12:27:52.138Z,9.06
2022-11-29T12:28:52.131Z,9.08
2022-11-29T12:29:52.134Z,9.08
2022-11-29T12:30:52.162Z,8.99
2022-11-29T12:31:52.130Z,8.99
2022-11-29T12:32:52.118Z,9.02
2022-11-29T12:33:52.114Z,9.02
2022-11-29T12:34:53.059Z,9.02
2022-11-29T12:35:52.106Z,9.03
2022-11-29T12:36:52.109Z,9.04
2022-11-29T12:37:52.095Z,9.00
2022-11-29T12:38:52.092Z,9.11
2022-11-29T12:39:52.092Z,8.99
2022-11-29T12:40:52.083Z,8.97
2022-11-29T12:41:54.157Z,8.92
2022-11-29T12:42:52.137Z,9.00
2022-11-29T12:43:52.070Z,9.00
2022-11-29T12:44:52.069Z,8.97
2022-11-29T12:45:52.060Z,9.00
2022-11-29T12:47:02.078Z,8.94
2022-11-29T12:47:52.458Z,8.94
2022-11-29T12:48:52.047Z,9.06
2022-11-29T12:49:52.046Z,9.03
2022-11-29T12:50:52.039Z,8.99
2022-11-29T12:51:52.038Z,9.04
2022-11-29T12:52:52.029Z,9.08
2022-11-29T12:53:52.030Z,9.00
2022-11-29T12:54:52.021Z,9.04
2022-11-29T12:55:52.020Z,9.19
2022-11-29T12:56:52.016Z,9.18
2022-11-29T12:57:52.014Z,9.08
2022-11-29T12:58:52.026Z,9.16
2022-11-29T12:59:52.002Z,9.08
2022-11-29T13:00:51.998Z,9.16
2022-11-29T13:01:52.089Z,9.11
2022-11-29T13:02:52.007Z,9.14
2022-11-29T13:03:51.985Z,9.22
2022-11-29T13:04:58.086Z,9.19
2022-11-29T13:05:51.976Z,9.19
2022-11-29T13:06:51.971Z,9.14
2022-11-29T13:07:52.059Z,9.18
2022-11-29T13:08:51.965Z,9.21
2022-11-29T13:09:51.960Z,9.19
2022-11-29T13:10:51.955Z,9.22
2022-11-29T13:11:51.953Z,9.22
2022-11-29T13:12:51.950Z,9.25
2022-11-29T13:13:51.950Z,9.21
2022-11-29T13:14:51.959Z,9.29
2022-11-29T13:15:51.978Z,9.29
2022-11-29T13:16:51.989Z,9.25
2022-11-29T13:17:51.930Z,9.26
2022-11-29T13:18:51.929Z,9.28